sensor_id;sensor_type;location;lat;lon;timestamp;P1;durP1;ratioP1;P2;durP2;ratioP2
51612;SDS011;37694;51.748;14.326;2023-09-18T00:00:44;3.13;;;2.60;;
51612;SDS011;37694;51.748;14.326;2023-09-18T00:03:11;4.38;;;2.97;;
51612;SDS011;37694;51.748;14.326;2023-09-18T00:05:36;3.50;;;2.42;;
51612;SDS011;37694;51.748;14.326;2023-09-18T00:08:02;2.90;;;2.70;;
51612;SDS011;37694;51.748;14.326;2023-09-18T00:10:28;6.43;;;2.67;;
51612;SDS011;37694;51.748;14.326;2023-09-18T00:12:55;4.05;;;2.70;;
51612;SDS011;37694;51.748;14.326;2023-09-18T00:15:21;2.65;;;2.33;;
51612;SDS011;37694;51.748;14.326;2023-09-18T00:17:47;2.75;;;2.25;;
51612;SDS011;37694;51.748;14.326;2023-09-18T00:20:13;3.28;;;2.80;;
51612;SDS011;37694;51.748;14.326;2023-09-18T00:22:39;3.10;;;2.78;;
51612;SDS011;37694;51.748;14.326;2023-09-18T00:25:05;4.90;;;2.78;;
51612;SDS011;37694;51.748;14.326;2023-09-18T00:27:30;4.82;;;2.97;;
51612;SDS011;37694;51.748;14.326;2023-09-18T00:29:57;7.60;;;2.75;;
51612;SDS011;37694;51.748;14.326;2023-09-18T00:32:23;5.50;;;3.00;;
51612;SDS011;37694;51.748;14.326;2023-09-18T00:34:49;9.98;;;2.85;;
51612;SDS011;37694;51.748;14.326;2023-09-18T00:37:15;13.27;;;3.47;;
51612;SDS011;37694;51.748;14.326;2023-09-18T00:39:41;7.93;;;3.45;;
51612;SDS011;37694;51.748;14.326;2023-09-18T00:42:08;6.45;;;3.10;;
51612;SDS011;37694;51.748;14.326;2023-09-18T00:44:38;3.58;;;2.47;;
51612;SDS011;37694;51.748;14.326;2023-09-18T00:47:06;4.18;;;2.60;;
51612;SDS011;37694;51.748;14.326;2023-09-18T00:49:33;3.80;;;2.30;;
51612;SDS011;37694;51.748;14.326;2023-09-18T00:51:59;5.15;;;2.25;;
51612;SDS011;37694;51.748;14.326;2023-09-18T00:54:25;4.30;;;2.60;;
51612;SDS011;37694;51.748;14.326;2023-09-18T00:56:51;2.85;;;2.22;;
51612;SDS011;37694;51.748;14.326;2023-09-18T00:59:20;10.70;;;2.90;;
51612;SDS011;37694;51.748;14.326;2023-09-18T01:01:46;3.85;;;2.90;;
51612;SDS011;37694;51.748;14.326;2023-09-18T01:04:15;3.20;;;2.58;;
51612;SDS011;37694;51.748;14.326;2023-09-18T01:06:42;5.38;;;2.53;;
51612;SDS011;37694;51.748;14.326;2023-09-18T01:09:07;6.30;;;2.50;;
51612;SDS011;37694;51.748;14.326;2023-09-18T01:17:05;8.88;;;3.00;;
51612;SDS011;37694;51.748;14.326;2023-09-18T01:19:42;8.50;;;2.67;;
51612;SDS011;37694;51.748;14.326;2023-09-18T01:22:13;6.35;;;2.58;;
51612;SDS011;37694;51.748;14.326;2023-09-18T01:24:40;3.67;;;2.67;;
51612;SDS011;37694;51.748;14.326;2023-09-18T01:27:08;6.43;;;2.67;;
51612;SDS011;37694;51.748;14.326;2023-09-18T01:29:35;3.53;;;2.28;;
51612;SDS011;37694;51.748;14.326;2023-09-18T01:32:01;4.63;;;3.00;;
51612;SDS011;37694;51.748;14.326;2023-09-18T01:34:34;2.75;;;2.33;;
51612;SDS011;37694;51.748;14.326;2023-09-18T01:37:06;5.28;;;2.53;;
51612;SDS011;37694;51.748;14.326;2023-09-18T01:39:34;5.72;;;2.58;;
51612;SDS011;37694;51.748;14.326;2023-09-18T01:42:01;5.18;;;2.38;;
51612;SDS011;37694;51.748;14.326;2023-09-18T01:44:29;2.45;;;2.15;;
51612;SDS011;37694;51.748;14.326;2023-09-18T01:46:56;2.83;;;2.28;;
51612;SDS011;37694;51.748;14.326;2023-09-18T01:49:27;4.15;;;2.65;;
51612;SDS011;37694;51.748;14.326;2023-09-18T01:51:54;2.47;;;2.28;;
51612;SDS011;37694;51.748;14.326;2023-09-18T01:54:20;6.32;;;2.42;;
51612;SDS011;37694;51.748;14.326;2023-09-18T01:56:46;3.53;;;2.30;;
51612;SDS011;37694;51.748;14.326;2023-09-18T01:59:12;2.80;;;2.40;;
51612;SDS011;37694;51.748;14.326;2023-09-18T02:01:38;3.58;;;2.97;;
51612;SDS011;37694;51.748;14.326;2023-09-18T02:04:04;4.25;;;2.75;;
51612;SDS011;37694;51.748;14.326;2023-09-18T02:06:30;4.90;;;2.35;;
51612;SDS011;37694;51.748;14.326;2023-09-18T02:08:56;2.47;;;2.28;;
51612;SDS011;37694;51.748;14.326;2023-09-18T02:11:21;2.67;;;2.47;;
51612;SDS011;37694;51.748;14.326;2023-09-18T02:13:47;2.75;;;2.30;;
51612;SDS011;37694;51.748;14.326;2023-09-18T02:16:13;4.07;;;2.50;;
51612;SDS011;37694;51.748;14.326;2023-09-18T02:18:38;2.63;;;2.45;;
51612;SDS011;37694;51.748;14.326;2023-09-18T02:21:04;2.92;;;2.72;;
51612;SDS011;37694;51.748;14.326;2023-09-18T02:23:29;2.40;;;2.20;;
51612;SDS011;37694;51.748;14.326;2023-09-18T02:25:56;6.53;;;2.60;;
51612;SDS011;37694;51.748;14.326;2023-09-18T02:28:22;6.80;;;2.72;;
51612;SDS011;37694;51.748;14.326;2023-09-18T02:30:47;2.60;;;2.40;;
51612;SDS011;37694;51.748;14.326;2023-09-18T02:33:13;4.80;;;2.30;;
51612;SDS011;37694;51.748;14.326;2023-09-18T02:35:40;2.78;;;2.47;;
51612;SDS011;37694;51.748;14.326;2023-09-18T02:38:06;3.65;;;2.85;;
51612;SDS011;37694;51.748;14.326;2023-09-18T02:40:31;7.60;;;2.75;;
51612;SDS011;37694;51.748;14.326;2023-09-18T02:42:57;8.10;;;2.75;;
51612;SDS011;37694;51.748;14.326;2023-09-18T02:45:23;4.43;;;2.78;;
51612;SDS011;37694;51.748;14.326;2023-09-18T02:47:48;3.60;;;2.50;;
51612;SDS011;37694;51.748;14.326;2023-09-18T02:50:14;4.18;;;2.70;;
51612;SDS011;37694;51.748;14.326;2023-09-18T02:52:40;4.30;;;2.40;;
51612;SDS011;37694;51.748;14.326;2023-09-18T02:55:05;3.17;;;2.67;;
51612;SDS011;37694;51.748;14.326;2023-09-18T02:57:31;3.28;;;2.78;;
51612;SDS011;37694;51.748;14.326;2023-09-18T02:59:57;2.78;;;2.58;;
51612;SDS011;37694;51.748;14.326;2023-09-18T03:02:23;3.40;;;2.13;;
51612;SDS011;37694;51.748;14.326;2023-09-18T03:04:49;6.75;;;3.03;;
51612;SDS011;37694;51.748;14.326;2023-09-18T03:07:15;6.13;;;2.50;;
51612;SDS011;37694;51.748;14.326;2023-09-18T03:09:41;4.20;;;2.75;;
51612;SDS011;37694;51.748;14.326;2023-09-18T03:12:07;2.35;;;2.17;;
51612;SDS011;37694;51.748;14.326;2023-09-18T03:14:33;2.92;;;2.42;;
51612;SDS011;37694;51.748;14.326;2023-09-18T03:16:59;5.00;;;2.58;;
51612;SDS011;37694;51.748;14.326;2023-09-18T03:19:25;3.67;;;2.50;;
51612;SDS011;37694;51.748;14.326;2023-09-18T03:21:52;3.63;;;2.83;;
51612;SDS011;37694;51.748;14.326;2023-09-18T03:24:17;3.63;;;2.25;;
51612;SDS011;37694;51.748;14.326;2023-09-18T03:26:43;3.80;;;2.50;;
51612;SDS011;37694;51.748;14.326;2023-09-18T03:29:09;9.10;;;2.40;;
51612;SDS011;37694;51.748;14.326;2023-09-18T03:31:35;4.57;;;2.58;;
51612;SDS011;37694;51.748;14.326;2023-09-18T03:34:01;2.97;;;2.50;;
51612;SDS011;37694;51.748;14.326;2023-09-18T03:36:26;6.85;;;2.42;;
51612;SDS011;37694;51.748;14.326;2023-09-18T03:38:52;4.93;;;2.45;;
51612;SDS011;37694;51.748;14.326;2023-09-18T03:41:18;8.68;;;2.72;;
51612;SDS011;37694;51.748;14.326;2023-09-18T03:43:43;6.15;;;2.90;;
51612;SDS011;37694;51.748;14.326;2023-09-18T03:46:09;3.80;;;2.70;;
51612;SDS011;37694;51.748;14.326;2023-09-18T03:48:35;5.18;;;2.40;;
51612;SDS011;37694;51.748;14.326;2023-09-18T03:51:06;6.50;;;2.97;;
51612;SDS011;37694;51.748;14.326;2023-09-18T03:53:33;4.70;;;2.70;;
51612;SDS011;37694;51.748;14.326;2023-09-18T03:55:59;3.88;;;3.08;;
51612;SDS011;37694;51.748;14.326;2023-09-18T03:58:25;2.72;;;2.53;;
51612;SDS011;37694;51.748;14.326;2023-09-18T04:00:52;5.70;;;2.65;;
51612;SDS011;37694;51.748;14.326;2023-09-18T04:03:18;3.30;;;2.35;;
51612;SDS011;37694;51.748;14.326;2023-09-18T04:05:43;3.83;;;2.72;;
51612;SDS011;37694;51.748;14.326;2023-09-18T04:08:10;4.05;;;2.60;;
51612;SDS011;37694;51.748;14.326;2023-09-18T04:10:36;2.83;;;2.13;;
51612;SDS011;37694;51.748;14.326;2023-09-18T04:13:02;4.50;;;3.00;;
51612;SDS011;37694;51.748;14.326;2023-09-18T04:15:28;2.40;;;2.20;;
51612;SDS011;37694;51.748;14.326;2023-09-18T04:17:55;3.13;;;2.50;;
51612;SDS011;37694;51.748;14.326;2023-09-18T04:20:21;2.65;;;2.45;;
51612;SDS011;37694;51.748;14.326;2023-09-18T04:25:42;3.65;;;2.63;;
51612;SDS011;37694;51.748;14.326;2023-09-18T04:28:08;3.30;;;2.60;;
51612;SDS011;37694;51.748;14.326;2023-09-18T04:30:34;3.00;;;2.55;;
51612;SDS011;37694;51.748;14.326;2023-09-18T04:33:01;2.50;;;2.30;;
51612;SDS011;37694;51.748;14.326;2023-09-18T04:35:26;4.95;;;2.60;;
51612;SDS011;37694;51.748;14.326;2023-09-18T04:37:55;2.67;;;2.47;;
51612;SDS011;37694;51.748;14.326;2023-09-18T04:40:21;5.63;;;2.65;;
51612;SDS011;37694;51.748;14.326;2023-09-18T04:42:48;5.78;;;3.00;;
51612;SDS011;37694;51.748;14.326;2023-09-18T04:45:14;10.07;;;2.70;;
51612;SDS011;37694;51.748;14.326;2023-09-18T04:47:41;5.43;;;2.90;;
51612;SDS011;37694;51.748;14.326;2023-09-18T04:50:07;8.30;;;2.97;;
51612;SDS011;37694;51.748;14.326;2023-09-18T04:52:33;4.47;;;3.13;;
51612;SDS011;37694;51.748;14.326;2023-09-18T04:54:59;13.35;;;3.25;;
51612;SDS011;37694;51.748;14.326;2023-09-18T04:57:24;10.98;;;3.22;;
51612;SDS011;37694;51.748;14.326;2023-09-18T04:59:50;10.98;;;3.63;;
51612;SDS011;37694;51.748;14.326;2023-09-18T05:02:16;21.55;;;3.78;;
51612;SDS011;37694;51.748;14.326;2023-09-18T05:04:42;11.25;;;4.22;;
51612;SDS011;37694;51.748;14.326;2023-09-18T05:07:07;25.88;;;4.78;;
51612;SDS011;37694;51.748;14.326;2023-09-18T05:09:33;15.90;;;4.32;;
51612;SDS011;37694;51.748;14.326;2023-09-18T05:12:00;23.17;;;4.55;;
51612;SDS011;37694;51.748;14.326;2023-09-18T05:14:25;26.00;;;4.75;;
51612;SDS011;37694;51.748;14.326;2023-09-18T05:16:51;22.27;;;4.85;;
51612;SDS011;37694;51.748;14.326;2023-09-18T05:19:17;20.05;;;5.03;;
51612;SDS011;37694;51.748;14.326;2023-09-18T05:21:43;22.58;;;4.75;;
51612;SDS011;37694;51.748;14.326;2023-09-18T05:24:08;32.15;;;5.88;;
51612;SDS011;37694;51.748;14.326;2023-09-18T05:26:34;35.22;;;4.78;;
51612;SDS011;37694;51.748;14.326;2023-09-18T05:29:00;21.60;;;4.60;;
51612;SDS011;37694;51.748;14.326;2023-09-18T05:31:25;18.02;;;4.70;;
51612;SDS011;37694;51.748;14.326;2023-09-18T05:33:51;27.70;;;5.82;;
51612;SDS011;37694;51.748;14.326;2023-09-18T05:36:17;24.42;;;5.95;;
51612;SDS011;37694;51.748;14.326;2023-09-18T05:38:43;27.77;;;6.50;;
51612;SDS011;37694;51.748;14.326;2023-09-18T05:41:09;38.97;;;7.18;;
51612;SDS011;37694;51.748;14.326;2023-09-18T05:43:35;26.83;;;5.43;;
51612;SDS011;37694;51.748;14.326;2023-09-18T05:46:01;26.50;;;5.90;;
51612;SDS011;37694;51.748;14.326;2023-09-18T05:48:27;33.83;;;5.20;;
51612;SDS011;37694;51.748;14.326;2023-09-18T05:50:52;12.93;;;4.45;;
51612;SDS011;37694;51.748;14.326;2023-09-18T05:53:19;19.38;;;4.43;;
51612;SDS011;37694;51.748;14.326;2023-09-18T05:55:46;24.25;;;5.20;;
51612;SDS011;37694;51.748;14.326;2023-09-18T05:58:12;33.17;;;4.93;;
51612;SDS011;37694;51.748;14.326;2023-09-18T06:00:39;19.85;;;3.70;;
51612;SDS011;37694;51.748;14.326;2023-09-18T06:03:05;14.65;;;2.72;;
51612;SDS011;37694;51.748;14.326;2023-09-18T06:05:31;8.70;;;2.22;;
51612;SDS011;37694;51.748;14.326;2023-09-18T06:07:59;10.73;;;2.22;;
51612;SDS011;37694;51.748;14.326;2023-09-18T06:10:25;12.43;;;2.40;;
51612;SDS011;37694;51.748;14.326;2023-09-18T06:12:50;8.40;;;1.60;;
51612;SDS011;37694;51.748;14.326;2023-09-18T06:15:16;5.32;;;1.70;;
51612;SDS011;37694;51.748;14.326;2023-09-18T06:17:43;2.30;;;1.48;;
51612;SDS011;37694;51.748;14.326;2023-09-18T06:20:09;4.45;;;1.00;;
51612;SDS011;37694;51.748;14.326;2023-09-18T06:22:37;4.28;;;1.00;;
51612;SDS011;37694;51.748;14.326;2023-09-18T06:25:04;5.03;;;1.17;;
51612;SDS011;37694;51.748;14.326;2023-09-18T06:27:33;4.53;;;1.17;;
51612;SDS011;37694;51.748;14.326;2023-09-18T06:30:00;1.25;;;0.73;;
51612;SDS011;37694;51.748;14.326;2023-09-18T06:32:26;1.02;;;0.80;;
51612;SDS011;37694;51.748;14.326;2023-09-18T06:34:51;1.02;;;0.60;;
51612;SDS011;37694;51.748;14.326;2023-09-18T06:37:17;2.35;;;0.70;;
51612;SDS011;37694;51.748;14.326;2023-09-18T06:39:43;2.38;;;0.65;;
51612;SDS011;37694;51.748;14.326;2023-09-18T06:42:09;0.60;;;0.60;;
51612;SDS011;37694;51.748;14.326;2023-09-18T06:44:35;4.15;;;0.63;;
51612;SDS011;37694;51.748;14.326;2023-09-18T06:47:00;0.40;;;0.40;;
51612;SDS011;37694;51.748;14.326;2023-09-18T06:49:26;0.63;;;0.63;;
51612;SDS011;37694;51.748;14.326;2023-09-18T06:51:52;0.55;;;0.55;;
51612;SDS011;37694;51.748;14.326;2023-09-18T06:54:18;1.45;;;0.50;;
51612;SDS011;37694;51.748;14.326;2023-09-18T06:56:43;0.43;;;0.30;;
51612;SDS011;37694;51.748;14.326;2023-09-18T06:59:09;0.35;;;0.30;;
51612;SDS011;37694;51.748;14.326;2023-09-18T07:01:37;1.23;;;0.45;;
51612;SDS011;37694;51.748;14.326;2023-09-18T07:04:02;0.30;;;0.30;;
51612;SDS011;37694;51.748;14.326;2023-09-18T07:06:29;0.30;;;0.30;;
51612;SDS011;37694;51.748;14.326;2023-09-18T07:08:55;0.90;;;0.60;;
51612;SDS011;37694;51.748;14.326;2023-09-18T07:11:21;0.50;;;0.50;;
51612;SDS011;37694;51.748;14.326;2023-09-18T07:13:47;0.60;;;0.60;;
51612;SDS011;37694;51.748;14.326;2023-09-18T07:16:12;0.40;;;0.40;;
51612;SDS011;37694;51.748;14.326;2023-09-18T07:18:38;0.60;;;0.40;;
51612;SDS011;37694;51.748;14.326;2023-09-18T07:21:04;0.40;;;0.40;;
51612;SDS011;37694;51.748;14.326;2023-09-18T07:23:30;0.55;;;0.55;;
51612;SDS011;37694;51.748;14.326;2023-09-18T07:25:55;0.68;;;0.68;;
51612;SDS011;37694;51.748;14.326;2023-09-18T07:28:23;2.17;;;0.68;;
51612;SDS011;37694;51.748;14.326;2023-09-18T07:30:49;0.65;;;0.65;;
51612;SDS011;37694;51.748;14.326;2023-09-18T07:33:15;0.50;;;0.50;;
51612;SDS011;37694;51.748;14.326;2023-09-18T07:35:45;2.40;;;0.75;;
51612;SDS011;37694;51.748;14.326;2023-09-18T07:38:16;0.60;;;0.60;;
51612;SDS011;37694;51.748;14.326;2023-09-18T07:40:44;0.57;;;0.57;;
51612;SDS011;37694;51.748;14.326;2023-09-18T07:43:12;0.50;;;0.50;;
51612;SDS011;37694;51.748;14.326;2023-09-18T07:45:39;3.00;;;0.75;;
51612;SDS011;37694;51.748;14.326;2023-09-18T07:48:05;0.70;;;0.70;;
51612;SDS011;37694;51.748;14.326;2023-09-18T07:50:32;0.50;;;0.50;;
51612;SDS011;37694;51.748;14.326;2023-09-18T07:52:58;0.60;;;0.57;;
51612;SDS011;37694;51.748;14.326;2023-09-18T07:55:24;1.02;;;0.70;;
51612;SDS011;37694;51.748;14.326;2023-09-18T07:57:51;0.70;;;0.70;;
51612;SDS011;37694;51.748;14.326;2023-09-18T08:00:17;0.70;;;0.70;;
51612;SDS011;37694;51.748;14.326;2023-09-18T08:02:43;1.30;;;0.75;;
51612;SDS011;37694;51.748;14.326;2023-09-18T08:05:09;0.50;;;0.50;;
51612;SDS011;37694;51.748;14.326;2023-09-18T08:07:35;0.60;;;0.60;;
51612;SDS011;37694;51.748;14.326;2023-09-18T08:10:04;1.05;;;0.88;;
51612;SDS011;37694;51.748;14.326;2023-09-18T08:12:33;0.60;;;0.60;;
51612;SDS011;37694;51.748;14.326;2023-09-18T08:14:59;0.70;;;0.70;;
51612;SDS011;37694;51.748;14.326;2023-09-18T08:17:25;0.70;;;0.70;;
51612;SDS011;37694;51.748;14.326;2023-09-18T08:19:51;1.45;;;0.70;;
51612;SDS011;37694;51.748;14.326;2023-09-18T08:22:18;0.70;;;0.70;;
51612;SDS011;37694;51.748;14.326;2023-09-18T08:24:45;0.70;;;0.70;;
51612;SDS011;37694;51.748;14.326;2023-09-18T08:27:13;0.70;;;0.70;;
51612;SDS011;37694;51.748;14.326;2023-09-18T08:29:41;0.80;;;0.80;;
51612;SDS011;37694;51.748;14.326;2023-09-18T08:32:08;0.63;;;0.63;;
51612;SDS011;37694;51.748;14.326;2023-09-18T08:34:34;0.60;;;0.60;;
51612;SDS011;37694;51.748;14.326;2023-09-18T08:37:00;0.80;;;0.80;;
51612;SDS011;37694;51.748;14.326;2023-09-18T08:39:27;0.75;;;0.75;;
51612;SDS011;37694;51.748;14.326;2023-09-18T08:41:56;0.50;;;0.50;;
51612;SDS011;37694;51.748;14.326;2023-09-18T08:44:24;0.40;;;0.40;;
51612;SDS011;37694;51.748;14.326;2023-09-18T08:46:52;0.82;;;0.82;;
51612;SDS011;37694;51.748;14.326;2023-09-18T08:49:24;0.60;;;0.60;;
51612;SDS011;37694;51.748;14.326;2023-09-18T08:51:51;0.88;;;0.70;;
51612;SDS011;37694;51.748;14.326;2023-09-18T08:54:21;0.93;;;0.90;;
51612;SDS011;37694;51.748;14.326;2023-09-18T08:56:48;0.75;;;0.75;;
51612;SDS011;37694;51.748;14.326;2023-09-18T08:59:15;0.68;;;0.68;;
51612;SDS011;37694;51.748;14.326;2023-09-18T09:01:42;0.60;;;0.60;;
51612;SDS011;37694;51.748;14.326;2023-09-18T09:04:07;0.50;;;0.50;;
51612;SDS011;37694;51.748;14.326;2023-09-18T09:06:33;0.68;;;0.68;;
51612;SDS011;37694;51.748;14.326;2023-09-18T09:09:01;0.63;;;0.63;;
51612;SDS011;37694;51.748;14.326;2023-09-18T09:11:26;0.60;;;0.60;;
51612;SDS011;37694;51.748;14.326;2023-09-18T09:14:14;1.17;;;0.63;;
51612;SDS011;37694;51.748;14.326;2023-09-18T09:16:47;0.77;;;0.68;;
51612;SDS011;37694;51.748;14.326;2023-09-18T09:19:15;0.70;;;0.70;;
51612;SDS011;37694;51.748;14.326;2023-09-18T09:21:42;0.73;;;0.73;;
51612;SDS011;37694;51.748;14.326;2023-09-18T09:24:09;0.70;;;0.70;;
51612;SDS011;37694;51.748;14.326;2023-09-18T09:26:44;0.95;;;0.70;;
51612;SDS011;37694;51.748;14.326;2023-09-18T09:29:23;0.75;;;0.73;;
51612;SDS011;37694;51.748;14.326;2023-09-18T09:31:49;0.60;;;0.60;;
51612;SDS011;37694;51.748;14.326;2023-09-18T09:34:24;0.80;;;0.80;;
51612;SDS011;37694;51.748;14.326;2023-09-18T09:36:56;0.73;;;0.73;;
51612;SDS011;37694;51.748;14.326;2023-09-18T09:39:22;0.80;;;0.75;;
51612;SDS011;37694;51.748;14.326;2023-09-18T09:41:53;0.80;;;0.80;;
51612;SDS011;37694;51.748;14.326;2023-09-18T09:44:18;0.95;;;0.95;;
51612;SDS011;37694;51.748;14.326;2023-09-18T09:46:48;0.70;;;0.70;;
51612;SDS011;37694;51.748;14.326;2023-09-18T09:49:16;0.80;;;0.80;;
51612;SDS011;37694;51.748;14.326;2023-09-18T09:51:44;0.77;;;0.70;;
51612;SDS011;37694;51.748;14.326;2023-09-18T09:54:11;0.63;;;0.63;;
51612;SDS011;37694;51.748;14.326;2023-09-18T09:59:16;0.85;;;0.85;;
51612;SDS011;37694;51.748;14.326;2023-09-18T10:01:46;0.90;;;0.90;;
51612;SDS011;37694;51.748;14.326;2023-09-18T10:04:14;0.80;;;0.80;;
51612;SDS011;37694;51.748;14.326;2023-09-18T10:06:45;1.65;;;0.80;;
51612;SDS011;37694;51.748;14.326;2023-09-18T10:09:16;0.75;;;0.75;;
51612;SDS011;37694;51.748;14.326;2023-09-18T10:11:45;0.90;;;0.90;;
51612;SDS011;37694;51.748;14.326;2023-09-18T10:14:21;0.90;;;0.90;;
51612;SDS011;37694;51.748;14.326;2023-09-18T10:16:54;1.00;;;0.88;;
51612;SDS011;37694;51.748;14.326;2023-09-18T10:19:40;0.75;;;0.75;;
51612;SDS011;37694;51.748;14.326;2023-09-18T10:24:59;0.75;;;0.75;;
51612;SDS011;37694;51.748;14.326;2023-09-18T10:27:49;1.65;;;0.70;;
51612;SDS011;37694;51.748;14.326;2023-09-18T10:30:21;1.00;;;1.00;;
51612;SDS011;37694;51.748;14.326;2023-09-18T10:32:48;0.80;;;0.80;;
51612;SDS011;37694;51.748;14.326;2023-09-18T10:35:15;0.75;;;0.75;;
51612;SDS011;37694;51.748;14.326;2023-09-18T10:37:42;0.90;;;0.90;;
51612;SDS011;37694;51.748;14.326;2023-09-18T10:40:11;0.82;;;0.82;;
51612;SDS011;37694;51.748;14.326;2023-09-18T10:42:38;1.77;;;0.75;;
51612;SDS011;37694;51.748;14.326;2023-09-18T10:45:09;0.80;;;0.80;;
51612;SDS011;37694;51.748;14.326;2023-09-18T10:47:40;1.95;;;0.93;;
51612;SDS011;37694;51.748;14.326;2023-09-18T10:52:36;0.80;;;0.80;;
51612;SDS011;37694;51.748;14.326;2023-09-18T10:55:10;1.00;;;0.98;;
51612;SDS011;37694;51.748;14.326;2023-09-18T10:57:37;0.77;;;0.77;;
51612;SDS011;37694;51.748;14.326;2023-09-18T11:00:04;0.80;;;0.80;;
51612;SDS011;37694;51.748;14.326;2023-09-18T11:02:39;1.00;;;1.00;;
51612;SDS011;37694;51.748;14.326;2023-09-18T11:05:05;0.90;;;0.90;;
51612;SDS011;37694;51.748;14.326;2023-09-18T11:07:31;1.17;;;1.17;;
51612;SDS011;37694;51.748;14.326;2023-09-18T11:09:57;0.93;;;0.93;;
51612;SDS011;37694;51.748;14.326;2023-09-18T11:12:23;1.02;;;1.02;;
51612;SDS011;37694;51.748;14.326;2023-09-18T11:15:08;0.90;;;0.90;;
51612;SDS011;37694;51.748;14.326;2023-09-18T11:17:38;0.70;;;0.70;;
51612;SDS011;37694;51.748;14.326;2023-09-18T11:20:06;0.82;;;0.82;;
51612;SDS011;37694;51.748;14.326;2023-09-18T11:22:37;0.90;;;0.90;;
51612;SDS011;37694;51.748;14.326;2023-09-18T11:28:01;1.13;;;0.80;;
51612;SDS011;37694;51.748;14.326;2023-09-18T11:30:28;0.70;;;0.70;;
51612;SDS011;37694;51.748;14.326;2023-09-18T11:32:55;0.63;;;0.63;;
51612;SDS011;37694;51.748;14.326;2023-09-18T11:35:21;1.25;;;1.15;;
51612;SDS011;37694;51.748;14.326;2023-09-18T11:37:47;0.60;;;0.60;;
51612;SDS011;37694;51.748;14.326;2023-09-18T11:40:32;0.90;;;0.90;;
51612;SDS011;37694;51.748;14.326;2023-09-18T11:45:52;1.10;;;1.00;;
51612;SDS011;37694;51.748;14.326;2023-09-18T11:48:18;0.88;;;0.88;;
51612;SDS011;37694;51.748;14.326;2023-09-18T11:50:45;0.95;;;0.95;;
51612;SDS011;37694;51.748;14.326;2023-09-18T11:53:14;0.90;;;0.90;;
51612;SDS011;37694;51.748;14.326;2023-09-18T11:55:40;1.00;;;1.00;;
51612;SDS011;37694;51.748;14.326;2023-09-18T11:58:07;0.90;;;0.90;;
51612;SDS011;37694;51.748;14.326;2023-09-18T12:00:34;1.35;;;1.00;;
51612;SDS011;37694;51.748;14.326;2023-09-18T12:03:17;0.90;;;0.90;;
51612;SDS011;37694;51.748;14.326;2023-09-18T12:06:00;0.82;;;0.80;;
51612;SDS011;37694;51.748;14.326;2023-09-18T12:08:30;1.02;;;1.02;;
51612;SDS011;37694;51.748;14.326;2023-09-18T12:10:57;0.98;;;0.93;;
51612;SDS011;37694;51.748;14.326;2023-09-18T12:13:26;0.93;;;0.93;;
51612;SDS011;37694;51.748;14.326;2023-09-18T12:16:02;1.13;;;0.90;;
51612;SDS011;37694;51.748;14.326;2023-09-18T12:18:34;1.42;;;0.80;;
51612;SDS011;37694;51.748;14.326;2023-09-18T12:21:02;1.38;;;0.98;;
51612;SDS011;37694;51.748;14.326;2023-09-18T12:23:41;1.35;;;1.25;;
51612;SDS011;37694;51.748;14.326;2023-09-18T12:26:10;1.08;;;1.08;;
51612;SDS011;37694;51.748;14.326;2023-09-18T12:28:38;1.45;;;1.00;;
51612;SDS011;37694;51.748;14.326;2023-09-18T12:31:06;0.98;;;0.98;;
51612;SDS011;37694;51.748;14.326;2023-09-18T12:33:35;1.13;;;1.13;;
51612;SDS011;37694;51.748;14.326;2023-09-18T12:36:05;1.25;;;1.23;;
51612;SDS011;37694;51.748;14.326;2023-09-18T12:38:33;1.30;;;1.20;;
51612;SDS011;37694;51.748;14.326;2023-09-18T12:40:59;1.00;;;1.00;;
51612;SDS011;37694;51.748;14.326;2023-09-18T12:43:49;1.13;;;1.13;;
51612;SDS011;37694;51.748;14.326;2023-09-18T12:46:15;1.38;;;1.27;;
51612;SDS011;37694;51.748;14.326;2023-09-18T12:48:43;1.27;;;1.27;;
51612;SDS011;37694;51.748;14.326;2023-09-18T12:51:12;1.33;;;1.30;;
51612;SDS011;37694;51.748;14.326;2023-09-18T12:53:39;1.48;;;1.38;;
51612;SDS011;37694;51.748;14.326;2023-09-18T12:56:05;1.30;;;1.30;;
51612;SDS011;37694;51.748;14.326;2023-09-18T12:58:33;1.40;;;1.30;;
51612;SDS011;37694;51.748;14.326;2023-09-18T13:01:03;1.45;;;1.35;;
51612;SDS011;37694;51.748;14.326;2023-09-18T13:03:40;1.50;;;1.40;;
51612;SDS011;37694;51.748;14.326;2023-09-18T13:06:11;1.60;;;1.50;;
51612;SDS011;37694;51.748;14.326;2023-09-18T13:08:41;8.25;;;2.00;;
51612;SDS011;37694;51.748;14.326;2023-09-18T13:11:06;8.18;;;2.15;;
51612;SDS011;37694;51.748;14.326;2023-09-18T13:13:32;5.60;;;2.30;;
51612;SDS011;37694;51.748;14.326;2023-09-18T13:15:58;9.55;;;1.98;;
51612;SDS011;37694;51.748;14.326;2023-09-18T13:18:26;18.63;;;2.78;;
51612;SDS011;37694;51.748;14.326;2023-09-18T13:20:52;12.98;;;2.38;;
51612;SDS011;37694;51.748;14.326;2023-09-18T13:23:18;8.20;;;1.88;;
51612;SDS011;37694;51.748;14.326;2023-09-18T13:25:44;7.28;;;2.90;;
51612;SDS011;37694;51.748;14.326;2023-09-18T13:28:12;10.30;;;2.58;;
51612;SDS011;37694;51.748;14.326;2023-09-18T13:30:41;7.82;;;2.40;;
51612;SDS011;37694;51.748;14.326;2023-09-18T13:33:11;13.80;;;3.03;;
51612;SDS011;37694;51.748;14.326;2023-09-18T13:35:41;19.92;;;2.88;;
51612;SDS011;37694;51.748;14.326;2023-09-18T13:38:08;23.15;;;3.42;;
51612;SDS011;37694;51.748;14.326;2023-09-18T13:40:36;11.77;;;2.60;;
51612;SDS011;37694;51.748;14.326;2023-09-18T13:43:03;15.48;;;2.63;;
51612;SDS011;37694;51.748;14.326;2023-09-18T13:45:33;13.32;;;3.50;;
51612;SDS011;37694;51.748;14.326;2023-09-18T13:48:02;13.30;;;3.50;;
51612;SDS011;37694;51.748;14.326;2023-09-18T13:50:29;10.85;;;2.38;;
51612;SDS011;37694;51.748;14.326;2023-09-18T13:52:55;24.95;;;2.85;;
51612;SDS011;37694;51.748;14.326;2023-09-18T13:55:20;29.58;;;3.97;;
51612;SDS011;37694;51.748;14.326;2023-09-18T13:57:47;15.63;;;2.92;;
51612;SDS011;37694;51.748;14.326;2023-09-18T14:00:13;16.15;;;3.55;;
51612;SDS011;37694;51.748;14.326;2023-09-18T14:02:39;11.07;;;3.08;;
51612;SDS011;37694;51.748;14.326;2023-09-18T14:05:06;17.85;;;3.10;;
51612;SDS011;37694;51.748;14.326;2023-09-18T14:07:33;27.85;;;3.28;;
51612;SDS011;37694;51.748;14.326;2023-09-18T14:09:59;18.55;;;2.70;;
51612;SDS011;37694;51.748;14.326;2023-09-18T14:12:28;15.32;;;3.15;;
51612;SDS011;37694;51.748;14.326;2023-09-18T14:14:55;8.38;;;2.60;;
51612;SDS011;37694;51.748;14.326;2023-09-18T14:17:21;12.93;;;3.08;;
51612;SDS011;37694;51.748;14.326;2023-09-18T14:19:47;11.63;;;2.95;;
51612;SDS011;37694;51.748;14.326;2023-09-18T14:22:13;18.85;;;3.35;;
51612;SDS011;37694;51.748;14.326;2023-09-18T14:24:39;20.67;;;4.25;;
51612;SDS011;37694;51.748;14.326;2023-09-18T14:27:05;17.50;;;3.63;;
51612;SDS011;37694;51.748;14.326;2023-09-18T14:29:31;16.17;;;3.22;;
51612;SDS011;37694;51.748;14.326;2023-09-18T14:31:58;22.05;;;3.42;;
51612;SDS011;37694;51.748;14.326;2023-09-18T14:34:28;23.40;;;3.90;;
51612;SDS011;37694;51.748;14.326;2023-09-18T14:36:55;27.85;;;4.50;;
51612;SDS011;37694;51.748;14.326;2023-09-18T14:39:21;20.42;;;4.45;;
51612;SDS011;37694;51.748;14.326;2023-09-18T14:41:47;14.27;;;4.65;;
51612;SDS011;37694;51.748;14.326;2023-09-18T14:44:13;20.90;;;4.60;;
51612;SDS011;37694;51.748;14.326;2023-09-18T14:46:40;22.83;;;4.32;;
51612;SDS011;37694;51.748;14.326;2023-09-18T14:49:05;20.70;;;3.72;;
51612;SDS011;37694;51.748;14.326;2023-09-18T14:51:35;24.45;;;3.97;;
51612;SDS011;37694;51.748;14.326;2023-09-18T14:54:01;22.00;;;4.35;;